Time;durP1;ratioP1;P1;durP2;ratioP2;P2;SDS_P1;SDS_P2;PMS_P1;PMS_P2;Temp;Humidity;BMP_temperature;BMP_pressure;BME280_temperature;BME280_humidity;BME280_pressure;Samples;Min_cycle;Max_cycle;Signal;HPM_P1;HPM_P2
2021/05/30 00:01:03;;;;;;;1.88;1.10;;;;;;;-148.58;100.00;55229.56;5015373;28;20021;-56
2021/05/30 00:03:29;;;;;;;1.95;0.93;;;;;;;-148.58;100.00;55229.56;5015303;28;20041;-56
2021/05/30 00:05:54;;;;;;;3.08;1.33;;;;;;;-148.58;100.00;55229.56;5015276;28;20026;-56
2021/05/30 00:08:19;;;;;;;1.17;0.90;;;;;;;-148.58;100.00;55229.56;5015454;28;20466;-57
2021/05/30 00:10:44;;;;;;;1.52;0.80;;;;;;;-148.58;100.00;55229.56;5015073;28;20063;-56
2021/05/30 00:13:11;;;;;;;1.40;1.15;;;;;;;-148.58;100.00;55229.56;5004417;28;20490;-56
2021/05/30 00:15:37;;;;;;;2.88;1.13;;;;;;;-148.58;100.00;55229.56;4995418;28;20023;-56
2021/05/30 00:18:02;;;;;;;2.63;1.17;;;;;;;-148.58;100.00;55229.56;4995678;28;20471;-56
2021/05/30 00:20:27;;;;;;;1.05;0.90;;;;;;;-148.58;100.00;55229.56;4995440;28;20472;-56
2021/05/30 00:22:53;;;;;;;2.67;1.33;;;;;;;-148.58;100.00;55229.56;4995115;28;20568;-56
2021/05/30 00:25:18;;;;;;;2.70;1.00;;;;;;;-148.58;100.00;55229.56;4995531;28;20026;-57
2021/05/30 00:27:44;;;;;;;2.25;1.10;;;;;;;-148.58;100.00;55229.56;4995217;28;20106;-56
2021/05/30 00:30:10;;;;;;;2.90;1.05;;;;;;;-148.58;100.00;55229.56;4995447;28;20512;-56
2021/05/30 00:32:35;;;;;;;1.52;1.13;;;;;;;-148.58;100.00;55229.56;4994687;28;20477;-57
2021/05/30 00:35:00;;;;;;;1.60;1.00;;;;;;;-148.58;100.00;55229.56;4995561;28;20030;-57
2021/05/30 00:37:26;;;;;;;1.92;1.33;;;;;;;-148.58;100.00;55229.56;4995171;28;20089;-56
2021/05/30 00:39:51;;;;;;;1.48;0.88;;;;;;;-148.58;100.00;55229.56;4995340;28;20037;-57
2021/05/30 00:42:17;;;;;;;1.42;1.02;;;;;;;-148.58;100.00;55229.56;4998271;28;20036;-57
2021/05/30 00:44:43;;;;;;;1.17;0.88;;;;;;;-148.58;100.00;55229.56;5014391;28;20026;-56
2021/05/30 00:47:08;;;;;;;2.92;1.10;;;;;;;-148.58;100.00;55229.56;5013926;28;20025;-57
2021/05/30 00:49:33;;;;;;;2.25;1.15;;;;;;;-148.58;100.00;55229.56;5014455;28;20480;-57
2021/05/30 00:51:59;;;;;;;2.03;0.98;;;;;;;-148.58;100.00;55229.56;5014529;28;20030;-57
2021/05/30 00:54:25;;;;;;;2.33;1.05;;;;;;;-148.58;100.00;55229.56;5014507;28;20026;-57
2021/05/30 00:56:50;;;;;;;1.80;1.10;;;;;;;-148.58;100.00;55229.56;5014249;28;20033;-57
2021/05/30 00:59:15;;;;;;;2.25;1.15;;;;;;;-148.58;100.00;55229.56;5014695;28;20021;-57
2021/05/30 01:01:42;;;;;;;1.23;1.10;;;;;;;-148.58;100.00;55229.56;5014250;28;20237;-56
2021/05/30 01:04:10;;;;;;;2.10;1.02;;;;;;;-148.58;100.00;55229.56;5014259;28;20438;-57
2021/05/30 01:06:37;;;;;;;1.30;1.17;;;;;;;-148.58;100.00;55229.56;5013911;28;20033;-57
2021/05/30 01:09:03;;;;;;;1.80;0.98;;;;;;;-148.58;100.00;55229.56;5014228;28;20029;-57
2021/05/30 01:11:30;;;;;;;2.08;1.20;;;;;;;-148.58;100.00;55229.56;5014413;28;20095;-56
2021/05/30 01:13:58;;;;;;;1.98;1.27;;;;;;;-148.58;100.00;55229.56;5013352;28;20030;-57
2021/05/30 01:16:25;;;;;;;1.83;0.90;;;;;;;-148.58;100.00;55229.56;4999524;28;20028;-56
2021/05/30 01:18:57;;;;;;;1.63;0.90;;;;;;;-148.58;100.00;55229.56;4994263;28;20030;-56
2021/05/30 01:21:23;;;;;;;1.33;0.90;;;;;;;-148.58;100.00;55229.56;4994321;28;20046;-57
2021/05/30 01:23:53;;;;;;;1.95;1.20;;;;;;;-148.58;100.00;55229.56;4994111;28;20474;-56
2021/05/30 01:26:20;;;;;;;2.60;1.20;;;;;;;-148.58;100.00;55229.56;4994327;28;20411;-57
2021/05/30 01:28:45;;;;;;;2.25;1.30;;;;;;;-148.58;100.00;55229.56;4994022;28;20413;-56
2021/05/30 01:31:11;;;;;;;3.35;1.38;;;;;;;-148.58;100.00;55229.56;4994637;28;20026;-57
2021/05/30 01:33:36;;;;;;;2.63;1.10;;;;;;;-148.58;100.00;55229.56;4994049;28;20532;-56
2021/05/30 01:36:03;;;;;;;1.60;0.98;;;;;;;-148.58;100.00;55229.56;4994203;28;20060;-56
2021/05/30 01:38:28;;;;;;;1.15;1.00;;;;;;;-148.58;100.00;55229.56;4994023;28;20072;-57
2021/05/30 01:40:54;;;;;;;2.88;1.30;;;;;;;-148.58;100.00;55229.56;4993932;28;20022;-57
2021/05/30 01:43:19;;;;;;;3.78;0.90;;;;;;;-148.58;100.00;55229.56;5007008;28;20105;-56
2021/05/30 01:45:45;;;;;;;1.67;1.38;;;;;;;-148.58;100.00;55229.56;5013213;28;20029;-56
2021/05/30 01:48:10;;;;;;;2.97;1.15;;;;;;;-148.58;100.00;55229.56;5011961;28;20374;-56
2021/05/30 01:50:36;;;;;;;1.83;0.93;;;;;;;-148.58;100.00;55229.56;5013282;28;20034;-56
2021/05/30 01:53:07;;;;;;;1.55;1.00;;;;;;;-148.58;100.00;55229.56;5013773;28;20481;-57
2021/05/30 01:58:12;;;;;;;2.88;1.27;;;;;;;-148.58;100.00;55229.56;5013443;28;20370;-57
2021/05/30 02:00:37;;;;;;;1.27;1.10;;;;;;;-148.58;100.00;55229.56;5013113;28;20021;-57
2021/05/30 02:03:03;;;;;;;2.97;1.55;;;;;;;-148.58;100.00;55229.56;5013164;28;20076;-56
2021/05/30 02:05:30;;;;;;;2.78;0.80;;;;;;;-148.58;100.00;55229.56;5013244;28;20041;-57
2021/05/30 02:07:55;;;;;;;3.10;1.10;;;;;;;-148.58;100.00;55229.56;5013145;28;20025;-57
2021/05/30 02:10:23;;;;;;;3.97;1.25;;;;;;;-148.58;100.00;55229.56;5013572;28;20432;-56
2021/05/30 02:12:51;;;;;;;2.20;1.30;;;;;;;-148.58;100.00;55229.56;5000799;28;20321;-56
2021/05/30 02:15:17;;;;;;;2.17;1.02;;;;;;;-148.58;100.00;55229.56;4993530;28;20054;-56
2021/05/30 02:17:43;;;;;;;1.65;1.00;;;;;;;-148.58;100.00;55229.56;4993336;28;20029;-57
2021/05/30 02:20:10;;;;;;;2.17;1.20;;;;;;;-148.58;100.00;55229.56;4993464;28;20130;-56
2021/05/30 02:22:36;;;;;;;1.70;1.13;;;;;;;-148.58;100.00;55229.56;4991819;28;20046;-56
2021/05/30 02:25:03;;;;;;;2.35;1.20;;;;;;;-148.58;100.00;55229.56;4993573;28;20026;-56
2021/05/30 02:27:28;;;;;;;2.85;1.38;;;;;;;-148.58;100.00;55229.56;4993381;28;20114;-56
2021/05/30 02:29:53;;;;;;;1.38;1.08;;;;;;;-148.58;100.00;55229.56;4993464;28;20026;-57
2021/05/30 02:32:18;;;;;;;2.13;1.10;;;;;;;-148.58;100.00;55229.56;4993368;28;20030;-57
2021/05/30 02:34:44;;;;;;;2.97;1.10;;;;;;;-148.58;100.00;55229.56;4992958;28;20022;-57
2021/05/30 02:37:11;;;;;;;1.67;1.30;;;;;;;-148.58;100.00;55229.56;4993193;28;20077;-57
2021/05/30 02:39:37;;;;;;;1.77;1.35;;;;;;;-148.58;100.00;55229.56;4993044;28;20086;-56
2021/05/30 02:42:04;;;;;;;1.52;0.98;;;;;;;-148.58;100.00;55229.56;4998354;28;20109;-57
2021/05/30 02:44:29;;;;;;;2.70;1.08;;;;;;;-148.58;100.00;55229.56;5011206;28;20386;-56
2021/05/30 02:46:55;;;;;;;1.90;1.00;;;;;;;-148.58;100.00;55229.56;4992985;28;20027;-56
2021/05/30 02:49:20;;;;;;;2.25;1.00;;;;;;;-148.58;100.00;55229.56;4993202;28;20101;-56
2021/05/30 02:51:46;;;;;;;2.08;1.42;;;;;;;-148.58;100.00;55229.56;5008344;28;20022;-57
2021/05/30 02:54:11;;;;;;;2.40;0.95;;;;;;;-148.58;100.00;55229.56;5012703;28;20378;-56
2021/05/30 02:56:37;;;;;;;3.17;0.90;;;;;;;-148.58;100.00;55229.56;5016005;28;20030;-56
2021/05/30 02:59:02;;;;;;;2.35;1.10;;;;;;;-148.58;100.00;55229.56;5016603;28;20018;-57
2021/05/30 03:01:28;;;;;;;1.67;1.27;;;;;;;-148.58;100.00;55229.56;5016535;28;20084;-57
2021/05/30 03:03:54;;;;;;;2.95;1.67;;;;;;;-148.58;100.00;55229.56;5016373;28;20021;-57
2021/05/30 03:06:23;;;;;;;2.53;1.08;;;;;;;-148.58;100.00;55229.56;5016783;28;20082;-56
2021/05/30 03:08:49;;;;;;;1.85;1.40;;;;;;;-148.58;100.00;55229.56;5016216;28;20061;-56
2021/05/30 03:11:14;;;;;;;2.60;1.17;;;;;;;-148.58;100.00;55229.56;5016098;28;20054;-56
2021/05/30 03:13:39;;;;;;;1.95;1.05;;;;;;;-148.58;100.00;55229.56;5015890;28;20065;-56
2021/05/30 03:16:05;;;;;;;3.13;1.13;;;;;;;-148.58;100.00;55229.56;5016336;28;20033;-56
2021/05/30 03:18:30;;;;;;;4.20;1.55;;;;;;;-148.58;100.00;55229.56;5016270;28;20022;-56
2021/05/30 03:20:55;;;;;;;2.10;1.00;;;;;;;-148.58;100.00;55229.56;5015869;28;20498;-57
2021/05/30 03:23:21;;;;;;;1.80;1.20;;;;;;;-148.58;100.00;55229.56;5016236;28;20033;-57
2021/05/30 03:25:46;;;;;;;2.05;1.25;;;;;;;-148.58;100.00;55229.56;5015940;28;20024;-56
2021/05/30 03:28:11;;;;;;;1.20;1.10;;;;;;;-148.58;100.00;55229.56;5016175;28;20048;-56
2021/05/30 03:30:37;;;;;;;2.13;1.10;;;;;;;-148.58;100.00;55229.56;5015869;28;20021;-56
2021/05/30 03:33:03;;;;;;;2.13;1.30;;;;;;;-148.58;100.00;55229.56;5016061;28;20104;-56
2021/05/30 03:35:28;;;;;;;2.38;1.63;;;;;;;-148.58;100.00;55229.56;5015920;28;20029;-57
2021/05/30 03:37:55;;;;;;;3.38;1.42;;;;;;;-148.58;100.00;55229.56;5015882;28;20022;-57
2021/05/30 03:40:29;;;;;;;2.35;1.02;;;;;;;-148.58;100.00;55229.56;5016021;28;20026;-56
2021/05/30 03:42:54;;;;;;;2.78;1.10;;;;;;;-148.58;100.00;55229.56;5000913;28;20029;-57
2021/05/30 03:45:21;;;;;;;2.80;1.10;;;;;;;-148.58;100.00;55229.56;4996357;28;20389;-56
2021/05/30 03:47:47;;;;;;;1.88;1.10;;;;;;;-148.58;100.00;55229.56;4995986;28;20037;-57
2021/05/30 03:50:13;;;;;;;1.52;1.42;;;;;;;-148.58;100.00;55229.56;4996172;28;20036;-56
2021/05/30 03:52:38;;;;;;;1.25;0.85;;;;;;;-148.58;100.00;55229.56;4995930;28;20022;-56
2021/05/30 03:55:04;;;;;;;2.92;1.25;;;;;;;-148.58;100.00;55229.56;4996064;28;20037;-56
2021/05/30 03:57:31;;;;;;;3.20;1.20;;;;;;;-148.58;100.00;55229.56;4995997;28;20037;-56
2021/05/30 03:59:57;;;;;;;1.77;1.25;;;;;;;-148.58;100.00;55229.56;4996181;28;20029;-56
2021/05/30 04:02:22;;;;;;;1.65;0.75;;;;;;;-148.58;100.00;55229.56;4995757;28;20022;-57
2021/05/30 04:04:47;;;;;;;1.50;0.75;;;;;;;-148.58;100.00;55229.56;4995576;28;20359;-56
2021/05/30 04:07:12;;;;;;;1.95;1.13;;;;;;;-148.58;100.00;55229.56;4995035;28;20018;-57
2021/05/30 04:09:37;;;;;;;3.38;0.90;;;;;;;-148.58;100.00;55229.56;4995637;28;20077;-57
2021/05/30 04:12:03;;;;;;;2.05;1.20;;;;;;;-148.58;100.00;55229.56;5005297;28;20022;-57
2021/05/30 04:14:28;;;;;;;1.48;1.00;;;;;;;-148.58;100.00;55229.56;5015114;28;20041;-56
2021/05/30 04:16:54;;;;;;;1.75;1.00;;;;;;;-148.58;100.00;55229.56;5015050;28;20025;-56
2021/05/30 04:19:19;;;;;;;1.25;0.98;;;;;;;-148.58;100.00;55229.56;5015257;28;20018;-57
2021/05/30 04:21:44;;;;;;;1.50;1.15;;;;;;;-148.58;100.00;55229.56;5014827;28;20042;-57
2021/05/30 04:24:10;;;;;;;2.47;0.93;;;;;;;-148.58;100.00;55229.56;5015352;28;20462;-56
2021/05/30 04:26:35;;;;;;;2.00;1.20;;;;;;;-148.58;100.00;55229.56;5014867;28;20025;-57
2021/05/30 04:29:00;;;;;;;1.98;1.00;;;;;;;-148.58;100.00;55229.56;5014990;28;20061;-57
2021/05/30 04:31:26;;;;;;;3.25;1.45;;;;;;;-148.58;100.00;55229.56;5014924;28;20378;-57
2021/05/30 04:33:51;;;;;;;1.85;1.00;;;;;;;-148.58;100.00;55229.56;5015189;28;20030;-57
2021/05/30 04:36:16;;;;;;;1.80;1.10;;;;;;;-148.58;100.00;55229.56;5014834;28;20057;-56
2021/05/30 04:38:42;;;;;;;2.33;1.05;;;;;;;-148.58;100.00;55229.56;5014515;28;20488;-57
2021/05/30 04:41:07;;;;;;;2.75;1.05;;;;;;;-148.58;100.00;55229.56;5012477;28;20506;-57
2021/05/30 04:43:32;;;;;;;2.42;1.23;;;;;;;-148.58;100.00;55229.56;4994776;28;20061;-57
2021/05/30 04:45:58;;;;;;;1.92;1.08;;;;;;;-148.58;100.00;55229.56;5011572;28;20030;-57
2021/05/30 04:48:24;;;;;;;1.02;0.93;;;;;;;-148.58;100.00;55229.56;5014670;28;20041;-56
2021/05/30 04:51:13;;;;;;;1.55;1.13;;;;;;;-148.58;100.00;55229.56;5029527;28;20029;-57
2021/05/30 04:53:42;;;;;;;2.80;1.10;;;;;;;-148.58;100.00;55229.56;5014130;28;20037;-57
2021/05/30 04:56:09;;;;;;;1.00;0.82;;;;;;;-148.58;100.00;55229.56;5014476;28;20026;-57
2021/05/30 04:58:35;;;;;;;1.25;1.10;;;;;;;-148.58;100.00;55229.56;5014321;28;20522;-57
2021/05/30 05:01:05;;;;;;;1.55;0.82;;;;;;;-148.58;100.00;55229.56;5014339;28;20053;-57
2021/05/30 05:03:32;;;;;;;2.00;0.88;;;;;;;-148.58;100.00;55229.56;5014182;28;20473;-56
2021/05/30 05:05:57;;;;;;;1.48;0.80;;;;;;;-148.58;100.00;55229.56;5014267;28;20408;-56
2021/05/30 05:08:23;;;;;;;2.38;1.00;;;;;;;-148.58;100.00;55229.56;5014274;28;20032;-57
2021/05/30 05:10:49;;;;;;;1.45;0.82;;;;;;;-148.58;100.00;55229.56;5011995;28;20036;-57
2021/05/30 05:13:15;;;;;;;0.70;0.70;;;;;;;-148.58;100.00;55229.56;5005170;28;20117;-57
2021/05/30 05:15:48;;;;;;;2.40;1.08;;;;;;;-148.58;100.00;55229.56;5013962;28;20104;-57
2021/05/30 05:18:19;;;;;;;1.85;0.90;;;;;;;-148.58;100.00;55229.56;5014159;28;20036;-56
2021/05/30 05:20:45;;;;;;;1.42;0.80;;;;;;;-148.58;100.00;55229.56;5013723;28;20054;-56
2021/05/30 05:23:18;;;;;;;1.52;0.93;;;;;;;-148.58;100.00;55229.56;5014026;28;20057;-57
2021/05/30 05:25:43;;;;;;;1.00;0.82;;;;;;;-148.58;100.00;55229.56;5013731;28;20026;-56
2021/05/30 05:28:09;;;;;;;2.42;0.70;;;;;;;-148.58;100.00;55229.56;5013933;28;20033;-57
2021/05/30 05:30:34;;;;;;;1.45;0.93;;;;;;;-148.58;100.00;55229.56;5013661;28;20462;-56
2021/05/30 05:33:00;;;;;;;1.77;1.00;;;;;;;-148.58;100.00;55229.56;5013816;28;20419;-57
2021/05/30 05:35:27;;;;;;;2.15;0.70;;;;;;;-148.58;100.00;55229.56;5013739;28;20033;-57
2021/05/30 05:37:54;;;;;;;1.85;0.80;;;;;;;-148.58;100.00;55229.56;5013413;28;20485;-57
2021/05/30 05:40:19;;;;;;;1.70;0.80;;;;;;;-148.58;100.00;55229.56;5013801;28;20030;-57
2021/05/30 05:42:45;;;;;;;2.50;1.10;;;;;;;-148.58;100.00;55229.56;5012807;28;20034;-56
2021/05/30 05:45:11;;;;;;;2.00;0.60;;;;;;;-148.58;100.00;55229.56;5013699;28;20033;-57
2021/05/30 05:47:36;;;;;;;1.10;0.70;;;;;;;-148.58;100.00;55229.56;5012710;28;20034;-57
2021/05/30 05:50:02;;;;;;;2.35;0.93;;;;;;;-148.58;100.00;55229.56;5013786;28;20373;-56
2021/05/30 05:52:27;;;;;;;1.25;0.80;;;;;;;-148.58;100.00;55229.56;5013443;28;20037;-57
2021/05/30 05:54:52;;;;;;;2.25;0.73;;;;;;;-148.58;100.00;55229.56;5013316;28;20080;-56
2021/05/30 05:57:18;;;;;;;1.70;0.55;;;;;;;-148.58;100.00;55229.56;5013460;28;20125;-56
2021/05/30 05:59:43;;;;;;;1.05;0.65;;;;;;;-148.58;100.00;55229.56;5013222;28;20026;-56
2021/05/30 06:02:09;;;;;;;1.33;0.60;;;;;;;-148.58;100.00;55229.56;5013237;28;20026;-57
2021/05/30 06:04:34;;;;;;;1.40;0.52;;;;;;;-148.58;100.00;55229.56;5013100;28;20033;-56
2021/05/30 06:07:00;;;;;;;0.70;0.50;;;;;;;-148.58;100.00;55229.56;5013119;28;20030;-57
2021/05/30 06:09:25;;;;;;;0.75;0.60;;;;;;;-148.58;100.00;55229.56;5013470;28;20062;-56
2021/05/30 06:11:51;;;;;;;0.85;0.50;;;;;;;-148.58;100.00;55229.56;5012390;28;20026;-56
2021/05/30 06:14:16;;;;;;;1.15;0.70;;;;;;;-148.58;100.00;55229.56;5005377;28;20045;-56
2021/05/30 06:16:41;;;;;;;0.88;0.60;;;;;;;-148.58;100.00;55229.56;4993291;28;20033;-57
2021/05/30 06:19:07;;;;;;;1.52;0.85;;;;;;;-148.58;100.00;55229.56;4993640;28;20030;-57
2021/05/30 06:21:32;;;;;;;1.15;0.50;;;;;;;-148.58;100.00;55229.56;4993229;28;20042;-56
2021/05/30 06:23:58;;;;;;;0.90;0.60;;;;;;;-148.58;100.00;55229.56;4993490;28;20030;-57
2021/05/30 06:26:23;;;;;;;0.93;0.50;;;;;;;-148.58;100.00;55229.56;4993355;28;20101;-56
2021/05/30 06:28:48;;;;;;;1.60;0.88;;;;;;;-148.58;100.00;55229.56;4993160;28;20033;-56
2021/05/30 06:31:14;;;;;;;1.52;0.70;;;;;;;-148.58;100.00;55229.56;4993002;28;20058;-57
2021/05/30 06:33:39;;;;;;;1.30;0.63;;;;;;;-148.58;100.00;55229.56;4993187;28;20026;-56
2021/05/30 06:36:05;;;;;;;0.70;0.60;;;;;;;-148.58;100.00;55229.56;4993274;28;20022;-56
2021/05/30 06:38:30;;;;;;;1.65;0.60;;;;;;;-148.58;100.00;55229.56;5006653;28;20030;-56
2021/05/30 06:40:55;;;;;;;0.57;0.57;;;;;;;-148.58;100.00;55229.56;5012053;28;20152;-57
2021/05/30 06:43:20;;;;;;;2.17;0.70;;;;;;;-148.58;100.00;55229.56;5012850;28;20072;-56
2021/05/30 06:45:46;;;;;;;1.42;0.50;;;;;;;-148.58;100.00;55229.56;5012587;28;20034;-56
2021/05/30 06:48:13;;;;;;;1.90;0.57;;;;;;;-148.58;100.00;55229.56;5013475;28;20021;-57
2021/05/30 06:50:38;;;;;;;1.20;0.63;;;;;;;-148.58;100.00;55229.56;5012306;28;20105;-56
2021/05/30 06:53:03;;;;;;;2.00;0.70;;;;;;;-148.58;100.00;55229.56;5012720;28;20054;-56
2021/05/30 06:55:28;;;;;;;1.58;0.70;;;;;;;-148.58;100.00;55229.56;5012687;28;20025;-57
2021/05/30 06:57:53;;;;;;;1.63;0.47;;;;;;;-148.58;100.00;55229.56;5012631;28;20024;-56
2021/05/30 07:00:19;;;;;;;1.27;0.55;;;;;;;-148.58;100.00;55229.56;5012758;28;20026;-56
2021/05/30 07:02:45;;;;;;;2.53;0.63;;;;;;;-148.58;100.00;55229.56;5012238;28;20503;-57
2021/05/30 07:05:11;;;;;;;2.05;0.77;;;;;;;-148.58;100.00;55229.56;5012736;28;20030;-56
2021/05/30 07:07:37;;;;;;;1.60;0.70;;;;;;;-148.58;100.00;55229.56;5012437;28;20380;-57
2021/05/30 07:10:03;;;;;;;1.00;0.40;;;;;;;-148.58;100.00;55229.56;5013172;28;20029;-57
2021/05/30 07:12:28;;;;;;;2.28;1.00;;;;;;;-148.58;100.00;55229.56;5012222;28;20037;-56
2021/05/30 07:14:54;;;;;;;1.70;0.60;;;;;;;-148.58;100.00;55229.56;4997720;28;20030;-56
2021/05/30 07:17:19;;;;;;;3.30;1.10;;;;;;;-148.58;100.00;55229.56;4992914;28;20034;-57
2021/05/30 07:19:48;;;;;;;1.20;0.63;;;;;;;-148.58;100.00;55229.56;4992779;28;20030;-57
2021/05/30 07:22:14;;;;;;;0.73;0.57;;;;;;;-148.58;100.00;55229.56;4992820;28;20263;-57
2021/05/30 07:24:39;;;;;;;0.80;0.52;;;;;;;-148.58;100.00;55229.56;4992524;28;20019;-57
2021/05/30 07:27:05;;;;;;;0.55;0.40;;;;;;;-148.58;100.00;55229.56;4992815;28;20041;-56
2021/05/30 07:29:30;;;;;;;1.50;0.65;;;;;;;-148.58;100.00;55229.56;4992676;28;20030;-57
2021/05/30 07:31:56;;;;;;;0.82;0.55;;;;;;;-148.58;100.00;55229.56;4992757;28;20453;-57
2021/05/30 07:34:21;;;;;;;2.25;0.75;;;;;;;-148.58;100.00;55229.56;5011168;28;20026;-57
2021/05/30 07:36:46;;;;;;;1.23;0.70;;;;;;;-148.58;100.00;55229.56;5012066;28;20372;-56
2021/05/30 07:39:11;;;;;;;3.30;0.50;;;;;;;-148.58;100.00;55229.56;5012942;28;20032;-57
2021/05/30 07:41:37;;;;;;;0.93;0.57;;;;;;;-148.58;100.00;55229.56;5011348;28;20034;-56
2021/05/30 07:44:02;;;;;;;2.05;0.85;;;;;;;-148.58;100.00;55229.56;5015823;28;20498;-56
2021/05/30 07:46:28;;;;;;;1.00;0.50;;;;;;;-148.58;100.00;55229.56;5015719;28;20539;-57
2021/05/30 07:48:53;;;;;;;1.02;0.65;;;;;;;-148.58;100.00;55229.56;5015665;28;20022;-57
2021/05/30 07:51:18;;;;;;;1.75;0.80;;;;;;;-148.58;100.00;55229.56;5015814;28;20124;-56
2021/05/30 07:53:44;;;;;;;2.17;0.47;;;;;;;-148.58;100.00;55229.56;5015529;28;20020;-56
2021/05/30 07:56:11;;;;;;;1.88;0.60;;;;;;;-148.58;100.00;55229.56;5030858;28;20045;-56
2021/05/30 07:58:36;;;;;;;0.90;0.60;;;;;;;-148.58;100.00;55229.56;5015418;28;20025;-57
2021/05/30 08:01:02;;;;;;;1.05;0.40;;;;;;;-148.58;100.00;55229.56;5015519;28;20568;-56
2021/05/30 08:03:27;;;;;;;2.58;0.80;;;;;;;-148.58;100.00;55229.56;5015347;28;20030;-56
2021/05/30 08:05:52;;;;;;;2.08;0.47;;;;;;;-148.58;100.00;55229.56;5015926;28;20014;-56
2021/05/30 08:08:18;;;;;;;1.02;0.47;;;;;;;-148.58;100.00;55229.56;5015481;28;20396;-57
2021/05/30 08:10:44;;;;;;;0.90;0.50;;;;;;;-148.58;100.00;55229.56;5007912;28;20029;-56
2021/05/30 08:13:09;;;;;;;1.10;0.55;;;;;;;-148.58;100.00;55229.56;4995785;28;20029;-56
2021/05/30 08:15:35;;;;;;;3.10;0.70;;;;;;;-148.58;100.00;55229.56;4995454;28;20022;-56
2021/05/30 08:18:00;;;;;;;0.93;0.35;;;;;;;-148.58;100.00;55229.56;4995702;28;20049;-56
2021/05/30 08:20:27;;;;;;;0.80;0.52;;;;;;;-148.58;100.00;55229.56;4995564;28;20101;-57
2021/05/30 08:22:52;;;;;;;1.48;0.50;;;;;;;-148.58;100.00;55229.56;4995253;28;20049;-56
2021/05/30 08:25:19;;;;;;;1.67;0.52;;;;;;;-148.58;100.00;55229.56;4995506;28;20022;-56
2021/05/30 08:27:47;;;;;;;0.82;0.50;;;;;;;-148.58;100.00;55229.56;4995242;28;20037;-57
2021/05/30 08:30:13;;;;;;;2.47;0.50;;;;;;;-148.58;100.00;55229.56;4995462;28;20085;-56
2021/05/30 08:32:39;;;;;;;1.85;0.55;;;;;;;-148.58;100.00;55229.56;4995056;28;20030;-56
2021/05/30 08:35:06;;;;;;;1.63;0.47;;;;;;;-148.58;100.00;55229.56;4995372;28;20367;-56
2021/05/30 08:37:32;;;;;;;1.35;0.60;;;;;;;-148.58;100.00;55229.56;4995146;28;20038;-57
2021/05/30 08:39:57;;;;;;;1.17;0.40;;;;;;;-148.58;100.00;55229.56;4995838;28;20026;-57
2021/05/30 08:42:23;;;;;;;1.15;0.50;;;;;;;-148.58;100.00;55229.56;5014332;28;20040;-57
2021/05/30 08:44:50;;;;;;;0.50;0.50;;;;;;;-148.58;100.00;55229.56;5014445;28;20026;-57
2021/05/30 08:47:19;;;;;;;0.63;0.50;;;;;;;-148.58;100.00;55229.56;5014711;28;20072;-57
2021/05/30 08:49:44;;;;;;;0.60;0.45;;;;;;;-148.58;100.00;55229.56;5014453;28;20163;-57
2021/05/30 08:52:09;;;;;;;2.00;0.50;;;;;;;-148.58;100.00;55229.56;5014623;28;20109;-56
2021/05/30 08:54:35;;;;;;;1.50;0.65;;;;;;;-148.58;100.00;55229.56;5014094;28;20377;-57
2021/05/30 08:57:00;;;;;;;1.08;0.50;;;;;;;-148.58;100.00;55229.56;5011248;28;20474;-56
2021/05/30 08:59:30;;;;;;;0.70;0.50;;;;;;;-148.58;100.00;55229.56;5001956;28;20038;-57
2021/05/30 09:01:58;;;;;;;1.02;0.40;;;;;;;-148.58;100.00;55229.56;5001269;28;20424;-56
2021/05/30 09:04:54;;;;;;;1.95;0.73;;;;;;;-148.58;100.00;55229.56;5014342;28;20033;-56
2021/05/30 09:07:36;;;;;;;1.33;0.40;;;;;;;-148.58;100.00;55229.56;5011816;28;20038;-57
2021/05/30 09:10:12;;;;;;;0.60;0.30;;;;;;;-148.58;100.00;55229.56;5011973;28;20486;-57
2021/05/30 09:12:38;;;;;;;2.45;0.60;;;;;;;-148.58;100.00;55229.56;5011629;28;20100;-57
2021/05/30 09:15:09;;;;;;;1.17;0.50;;;;;;;-148.58;100.00;55229.56;5011768;28;20034;-57
2021/05/30 09:17:35;;;;;;;1.15;0.68;;;;;;;-148.58;100.00;55229.56;5011515;28;20060;-56
2021/05/30 09:20:00;;;;;;;0.73;0.35;;;;;;;-148.58;100.00;55229.56;5011718;28;20489;-56
2021/05/30 09:22:37;;;;;;;0.85;0.50;;;;;;;-148.58;100.00;55229.56;5011465;28;20054;-57
2021/05/30 09:25:11;;;;;;;1.33;0.50;;;;;;;-148.58;100.00;55229.56;5011528;28;20038;-57
2021/05/30 09:27:42;;;;;;;2.42;0.40;;;;;;;-148.58;100.00;55229.56;5011419;28;20040;-56
2021/05/30 09:30:07;;;;;;;1.50;0.30;;;;;;;-148.58;100.00;55229.56;5010399;28;20044;-57
2021/05/30 09:32:52;;;;;;;1.23;0.47;;;;;;;-148.58;100.00;55229.56;5011464;28;20029;-56
2021/05/30 09:35:17;;;;;;;;;;;;;;;-148.58;100.00;55229.56;5011949;28;20025;-57
2021/05/30 09:37:42;;;;;;;1.77;0.50;;;;;;;-148.58;100.00;55229.56;5011186;28;19921;-57
2021/05/30 09:40:08;;;;;;;2.75;0.80;;;;;;;-148.58;100.00;55229.56;5011369;28;20299;-57
2021/05/30 09:42:37;;;;;;;1.08;0.57;;;;;;;-148.58;100.00;55229.56;5010525;28;20042;-56
2021/05/30 09:45:11;;;;;;;1.88;0.55;;;;;;;-148.58;100.00;55229.56;4994063;28;20106;-57
2021/05/30 09:47:44;;;;;;;0.70;0.55;;;;;;;-148.58;100.00;55229.56;4993784;28;20100;-57
2021/05/30 09:50:19;;;;;;;0.73;0.52;;;;;;;-148.58;100.00;55229.56;5009021;28;20030;-57
2021/05/30 09:52:47;;;;;;;2.47;0.60;;;;;;;-148.58;100.00;55229.56;4993666;28;20032;-56
2021/05/30 09:55:13;;;;;;;1.45;0.60;;;;;;;-148.58;100.00;55229.56;4993938;28;20019;-56
2021/05/30 09:57:39;;;;;;;1.15;0.30;;;;;;;-148.58;100.00;55229.56;4993955;28;20058;-56
2021/05/30 10:00:06;;;;;;;1.73;0.82;;;;;;;-148.58;100.00;55229.56;4992498;28;20093;-56
2021/05/30 10:02:32;;;;;;;1.15;0.52;;;;;;;-148.58;100.00;55229.56;4993578;28;20088;-56
2021/05/30 10:04:59;;;;;;;1.88;0.80;;;;;;;-148.58;100.00;55229.56;4992869;28;20065;-57
2021/05/30 10:07:26;;;;;;;1.40;0.40;;;;;;;-148.58;100.00;55229.56;5002554;28;20044;-57
2021/05/30 10:09:51;;;;;;;1.13;0.65;;;;;;;-148.58;100.00;55229.56;5013103;28;20032;-56
2021/05/30 10:12:18;;;;;;;2.72;0.80;;;;;;;-148.58;100.00;55229.56;5013269;28;20026;-56
2021/05/30 10:14:43;;;;;;;1.90;0.65;;;;;;;-148.58;100.00;55229.56;5012929;28;20100;-57
2021/05/30 10:17:11;;;;;;;2.17;0.50;;;;;;;-148.58;100.00;55229.56;5013423;28;20441;-56
2021/05/30 10:19:46;;;;;;;1.30;0.55;;;;;;;-148.58;100.00;55229.56;5012978;28;20030;-56
2021/05/30 10:22:12;;;;;;;1.75;0.60;;;;;;;-148.58;100.00;55229.56;5029474;23;20054;-56
2021/05/30 10:24:41;;;;;;;1.23;0.60;;;;;;;-148.58;100.00;55229.56;5032561;28;20044;-56
2021/05/30 10:27:15;;;;;;;1.00;0.75;;;;;;;-148.58;100.00;55229.56;5026238;28;20056;-56
2021/05/30 10:29:41;;;;;;;2.67;0.85;;;;;;;-148.58;100.00;55229.56;5014276;28;20072;-56
2021/05/30 10:32:17;;;;;;;1.60;0.85;;;;;;;-148.58;100.00;55229.56;5032745;28;20025;-56
2021/05/30 10:35:12;;;;;;;1.42;0.60;;;;;;;-148.58;100.00;55229.56;5032372;28;20064;-56
2021/05/30 10:37:43;;;;;;;1.38;0.50;;;;;;;-148.58;100.00;55229.56;5032389;28;20028;-56
2021/05/30 10:40:20;;;;;;;1.15;0.50;;;;;;;-148.58;100.00;55229.56;5032576;28;20471;-56
2021/05/30 10:43:12;;;;;;;1.05;0.60;;;;;;;-148.58;100.00;55229.56;5032172;28;20036;-57
2021/05/30 10:45:56;;;;;;;1.45;0.45;;;;;;;-148.58;100.00;55229.56;5032399;28;20030;-56
2021/05/30 10:48:22;;;;;;;2.03;0.70;;;;;;;-148.58;100.00;55229.56;5031322;28;20056;-56
2021/05/30 10:53:35;;;;;;;2.00;0.50;;;;;;;-148.58;100.00;55229.56;5032729;28;20053;-56
2021/05/30 10:56:30;;;;;;;2.13;0.80;;;;;;;-148.58;100.00;55229.56;5032471;28;20514;-57
2021/05/30 10:59:04;;;;;;;1.52;0.70;;;;;;;-148.58;100.00;55229.56;5031970;28;20025;-57
2021/05/30 11:01:38;;;;;;;1.58;0.65;;;;;;;-148.58;100.00;55229.56;5031078;28;20037;-56
2021/05/30 11:04:24;;;;;;;0.75;0.50;;;;;;;-148.58;100.00;55229.56;5032376;28;20485;-56
2021/05/30 11:06:53;;;;;;;1.63;0.50;;;;;;;-148.58;100.00;55229.56;5032114;28;20036;-57
2021/05/30 11:09:19;;;;;;;0.77;0.43;;;;;;;-148.58;100.00;55229.56;5032388;28;20044;-56
2021/05/30 11:11:45;;;;;;;0.88;0.60;;;;;;;-148.58;100.00;55229.56;5032164;28;20100;-57
2021/05/30 11:14:12;;;;;;;0.90;0.70;;;;;;;-148.58;100.00;55229.56;5032252;28;20484;-56